createdAt,value
2019-03-30T00:04:00.431Z,8.26
2019-03-30T00:06:29.756Z,8.24
2019-03-30T00:08:59.095Z,8.14
2019-03-30T00:11:28.422Z,8.10
2019-03-30T00:13:57.746Z,8.11
2019-03-30T00:16:27.087Z,8.00
2019-03-30T00:18:56.417Z,7.95
2019-03-30T00:21:25.753Z,7.90
2019-03-30T00:23:55.079Z,7.86
2019-03-30T00:26:24.423Z,7.84
2019-03-30T00:28:53.751Z,7.82
2019-03-30T00:31:23.088Z,7.76
2019-03-30T00:33:52.413Z,7.73
2019-03-30T00:36:22.057Z,7.75
2019-03-30T00:38:51.384Z,7.71
2019-03-30T00:41:20.723Z,7.66
2019-03-30T00:43:50.058Z,7.66
2019-03-30T00:46:19.398Z,7.58
2019-03-30T00:48:48.730Z,7.55
2019-03-30T00:51:18.065Z,7.50
2019-03-30T00:53:47.405Z,7.49
2019-03-30T00:56:16.741Z,7.49
2019-03-30T00:58:46.171Z,7.48
2019-03-30T01:04:10.911Z,7.50
2019-03-30T01:06:40.242Z,7.45
2019-03-30T01:11:50.198Z,7.40
2019-03-30T01:14:19.539Z,7.32
2019-03-30T01:16:48.867Z,7.29
2019-03-30T01:19:18.207Z,7.30
2019-03-30T01:21:47.534Z,7.34
2019-03-30T01:24:16.875Z,7.35
2019-03-30T01:26:46.206Z,7.40
2019-03-30T01:29:15.864Z,7.33
2019-03-30T01:31:45.203Z,7.33
2019-03-30T01:34:14.878Z,7.34
2019-03-30T01:36:44.217Z,7.36
2019-03-30T01:39:13.545Z,7.29
2019-03-30T01:41:42.880Z,7.24
2019-03-30T01:44:12.208Z,7.19
2019-03-30T01:46:41.890Z,7.10
2019-03-30T01:49:11.223Z,7.06
2019-03-30T01:51:40.798Z,7.00
2019-03-30T01:54:10.129Z,6.98
2019-03-30T01:56:39.464Z,7.08
2019-03-30T01:59:10.498Z,7.21
2019-03-30T02:01:39.842Z,7.33
2019-03-30T02:04:09.172Z,7.24
2019-03-30T02:07:09.763Z,7.24
2019-03-30T02:09:39.083Z,7.19
2019-03-30T02:12:08.416Z,7.09
2019-03-30T02:14:37.756Z,7.03
2019-03-30T02:17:07.087Z,6.98
2019-03-30T02:19:36.492Z,6.89
2019-03-30T02:22:05.824Z,6.83
2019-03-30T02:24:35.163Z,6.79
2019-03-30T02:27:04.490Z,6.79
2019-03-30T02:29:53.248Z,6.80
2019-03-30T02:32:22.626Z,6.75
2019-03-30T02:34:51.974Z,6.82
2019-03-30T02:37:21.301Z,6.85
2019-03-30T02:39:50.629Z,6.85
2019-03-30T02:42:19.971Z,6.78
2019-03-30T02:44:49.294Z,6.72
2019-03-30T02:47:18.635Z,6.71
2019-03-30T02:49:47.970Z,6.58
2019-03-30T02:52:17.291Z,6.58
2019-03-30T02:54:46.965Z,6.56
2019-03-30T02:57:16.291Z,6.54
2019-03-30T02:59:45.632Z,6.51
2019-03-30T03:02:14.960Z,6.52
2019-03-30T03:04:44.531Z,6.47
2019-03-30T03:07:13.869Z,6.51
2019-03-30T03:09:43.206Z,6.49
2019-03-30T03:12:12.579Z,6.57
2019-03-30T03:14:41.876Z,6.61
2019-03-30T03:17:11.213Z,6.59
2019-03-30T03:19:40.549Z,6.34
2019-03-30T03:22:09.910Z,6.34
2019-03-30T03:24:39.593Z,6.43
2019-03-30T03:27:08.922Z,6.38
2019-03-30T03:29:38.252Z,6.34
2019-03-30T03:32:07.594Z,6.38
2019-03-30T03:34:36.933Z,6.34
2019-03-30T03:37:06.287Z,6.30
2019-03-30T03:39:37.239Z,6.36
2019-03-30T03:42:06.888Z,6.41
2019-03-30T03:44:36.218Z,6.28
2019-03-30T03:47:05.554Z,6.30
2019-03-30T03:49:34.913Z,6.22
2019-03-30T03:52:15.294Z,6.22
2019-03-30T03:54:44.701Z,6.23
2019-03-30T03:57:25.449Z,6.28
2019-03-30T04:12:12.653Z,6.22
2019-03-30T04:17:44.098Z,6.15
2019-03-30T04:20:53.363Z,6.05
2019-03-30T04:23:22.819Z,6.10
2019-03-30T04:25:52.087Z,5.95
2019-03-30T04:28:21.437Z,5.91
2019-03-30T04:31:09.862Z,5.99
2019-03-30T04:33:58.543Z,5.93
2019-03-30T04:36:27.871Z,5.97
2019-03-30T04:38:57.203Z,5.95
2019-03-30T04:41:26.548Z,5.90
2019-03-30T04:43:55.985Z,5.78
2019-03-30T04:46:25.284Z,5.82
2019-03-30T04:48:54.624Z,5.75
2019-03-30T04:51:23.961Z,5.77
2019-03-30T04:53:53.308Z,5.74
2019-03-30T04:56:42.219Z,5.82
2019-03-30T04:59:11.633Z,5.72
2019-03-30T05:01:46.365Z,5.70
2019-03-30T05:04:15.711Z,5.68
2019-03-30T05:06:45.043Z,5.66
2019-03-30T05:09:14.429Z,5.69
2019-03-30T05:11:43.709Z,5.61
2019-03-30T05:14:13.035Z,5.63
2019-03-30T05:16:42.363Z,5.70
2019-03-30T05:19:11.709Z,5.72
2019-03-30T05:21:41.039Z,5.67
2019-03-30T05:24:10.751Z,5.72
2019-03-30T05:26:40.102Z,5.79
2019-03-30T05:29:09.443Z,5.68
2019-03-30T05:31:38.794Z,5.71
2019-03-30T05:34:08.143Z,5.71
2019-03-30T05:36:37.482Z,5.73
2019-03-30T05:39:06.883Z,5.74
2019-03-30T05:41:36.239Z,5.83
2019-03-30T05:44:05.582Z,5.84
2019-03-30T05:46:34.905Z,5.87
2019-03-30T05:49:04.251Z,6.05
2019-03-30T05:51:33.593Z,6.12
2019-03-30T05:54:02.931Z,6.12
2019-03-30T05:56:32.344Z,6.05
2019-03-30T05:59:01.671Z,6.09
2019-03-30T06:01:31.000Z,6.16
2019-03-30T06:04:06.186Z,6.33
2019-03-30T06:06:35.584Z,6.49
2019-03-30T06:09:24.018Z,6.58
2019-03-30T06:11:53.354Z,6.68
2019-03-30T06:14:22.683Z,6.49
2019-03-30T06:16:52.024Z,6.55
2019-03-30T06:19:21.353Z,6.58
2019-03-30T06:21:50.945Z,6.46
2019-03-30T06:24:20.283Z,6.60
2019-03-30T06:26:49.612Z,6.67
2019-03-30T06:29:18.947Z,6.67
2019-03-30T06:31:48.297Z,6.61
2019-03-30T06:34:17.618Z,6.83
2019-03-30T06:37:06.303Z,6.96
2019-03-30T06:39:37.202Z,7.15
2019-03-30T06:42:12.293Z,6.93
2019-03-30T06:44:41.618Z,7.20
2019-03-30T06:47:10.946Z,7.24
2019-03-30T06:49:40.288Z,7.18
2019-03-30T06:52:09.612Z,7.16
2019-03-30T06:54:38.934Z,7.14
2019-03-30T06:57:08.271Z,7.39
2019-03-30T06:59:37.601Z,7.43
2019-03-30T07:02:47.078Z,7.62
2019-03-30T07:05:16.427Z,7.58
2019-03-30T07:14:08.138Z,7.63
2019-03-30T07:19:27.720Z,7.91
2019-03-30T07:21:57.054Z,8.01
2019-03-30T07:24:26.379Z,8.18
2019-03-30T07:26:55.721Z,8.35
2019-03-30T07:29:25.043Z,8.34
2019-03-30T07:31:54.370Z,8.39
2019-03-30T07:34:23.709Z,8.46
2019-03-30T07:36:53.032Z,8.45
2019-03-30T07:39:22.597Z,8.71
2019-03-30T07:41:51.936Z,8.57
2019-03-30T07:44:21.258Z,8.72
2019-03-30T07:46:50.654Z,8.97
2019-03-30T07:49:19.994Z,9.06
2019-03-30T07:51:49.615Z,9.07
2019-03-30T07:54:19.178Z,9.12
2019-03-30T07:56:48.516Z,9.04
2019-03-30T07:59:17.840Z,9.39
2019-03-30T08:01:47.168Z,9.51
2019-03-30T08:04:16.506Z,9.63
2019-03-30T08:06:45.846Z,9.51
2019-03-30T08:09:15.173Z,9.81
2019-03-30T08:11:44.514Z,9.68
2019-03-30T08:14:13.835Z,9.89
2019-03-30T08:16:44.096Z,10.17
2019-03-30T08:19:27.749Z,10.11
2019-03-30T08:21:49.763Z,10.31
2019-03-30T08:24:19.430Z,10.42
2019-03-30T08:26:48.760Z,10.67
2019-03-30T08:29:18.087Z,10.77
2019-03-30T08:31:49.943Z,10.81
2019-03-30T08:34:23.754Z,10.81
2019-03-30T08:36:54.824Z,10.81
2019-03-30T08:39:24.144Z,10.92
2019-03-30T08:41:53.476Z,10.82
2019-03-30T08:44:22.839Z,11.06
2019-03-30T08:46:52.176Z,10.92
2019-03-30T08:49:21.503Z,11.25
2019-03-30T08:51:50.852Z,11.51
2019-03-30T08:54:20.179Z,11.63
2019-03-30T08:56:49.512Z,11.59
2019-03-30T08:59:18.848Z,11.95
2019-03-30T09:01:48.178Z,12.08
2019-03-30T09:04:17.583Z,12.08
2019-03-30T09:06:46.939Z,11.95
2019-03-30T09:09:16.277Z,12.20
2019-03-30T09:11:45.610Z,12.24
2019-03-30T09:14:14.955Z,12.42
2019-03-30T09:16:44.522Z,12.61
2019-03-30T09:19:13.855Z,12.71
2019-03-30T09:22:02.541Z,13.12
2019-03-30T09:24:32.127Z,13.12
2019-03-30T09:27:01.461Z,13.31
2019-03-30T09:29:43.292Z,13.39
2019-03-30T09:32:14.872Z,13.39
2019-03-30T09:34:53.019Z,13.58
2019-03-30T09:37:22.368Z,13.64
2019-03-30T09:40:03.831Z,13.77
2019-03-30T09:42:33.162Z,13.77
2019-03-30T09:45:21.843Z,14.24
2019-03-30T09:47:51.173Z,14.24
2019-03-30T09:50:39.874Z,14.49
2019-03-30T09:53:09.203Z,14.49
2019-03-30T09:55:38.537Z,14.69
2019-03-30T09:58:07.882Z,14.57
2019-03-30T10:00:37.250Z,14.79
2019-03-30T10:03:06.586Z,15.35
2019-03-30T10:05:35.939Z,15.35
2019-03-30T10:08:05.543Z,15.29
2019-03-30T10:10:34.905Z,15.59
2019-03-30T10:13:04.246Z,15.25
2019-03-30T10:15:33.575Z,15.42
2019-03-30T10:18:08.734Z,15.66
2019-03-30T10:20:38.075Z,15.94
2019-03-30T10:23:07.651Z,16.11
2019-03-30T10:25:37.435Z,16.17
2019-03-30T10:28:06.754Z,16.38
2019-03-30T10:30:36.084Z,16.67
2019-03-30T10:33:05.429Z,16.73
2019-03-30T10:35:35.068Z,16.62
2019-03-30T10:38:04.683Z,16.86
2019-03-30T10:40:34.338Z,16.78
2019-03-30T10:43:03.999Z,16.80
2019-03-30T10:45:33.353Z,16.80
2019-03-30T10:48:05.335Z,16.81
2019-03-30T10:50:34.688Z,17.29
2019-03-30T10:53:04.299Z,17.42
2019-03-30T10:55:33.838Z,17.08
2019-03-30T10:58:03.179Z,16.98
2019-03-30T11:00:51.891Z,16.97
2019-03-30T11:03:21.230Z,17.17
2019-03-30T11:05:50.554Z,17.20
2019-03-30T11:08:19.978Z,17.35
2019-03-30T11:10:49.309Z,17.50
2019-03-30T11:13:18.954Z,17.33
2019-03-30T11:15:48.569Z,17.52
2019-03-30T11:18:17.895Z,17.42
2019-03-30T11:20:47.231Z,17.68
2019-03-30T11:23:16.579Z,17.19
2019-03-30T11:25:46.172Z,17.23
2019-03-30T11:28:15.499Z,17.40
2019-03-30T11:30:44.842Z,17.48
2019-03-30T11:33:33.268Z,17.49
2019-03-30T11:36:02.613Z,17.26
2019-03-30T11:38:31.939Z,17.47
2019-03-30T11:41:01.276Z,17.68
2019-03-30T11:43:30.932Z,17.76
2019-03-30T11:46:00.260Z,17.83
2019-03-30T11:48:29.587Z,17.73
2019-03-30T11:50:58.937Z,17.57
2019-03-30T11:53:28.339Z,17.60
2019-03-30T11:55:57.636Z,17.53
2019-03-30T11:58:26.956Z,17.79
2019-03-30T12:00:56.359Z,18.01
2019-03-30T12:03:25.691Z,18.04
2019-03-30T12:05:55.037Z,18.00
2019-03-30T12:08:24.379Z,17.95
2019-03-30T12:10:53.993Z,17.99
2019-03-30T12:13:23.377Z,17.64
2019-03-30T12:15:52.963Z,17.65
2019-03-30T12:18:22.296Z,17.82
2019-03-30T12:20:51.648Z,18.30
2019-03-30T12:23:21.107Z,18.29
2019-03-30T12:25:50.576Z,18.07
2019-03-30T12:28:39.257Z,17.88
2019-03-30T12:31:08.837Z,17.79
2019-03-30T12:33:38.169Z,18.22
2019-03-30T12:36:07.639Z,17.92
2019-03-30T12:38:37.582Z,18.11
2019-03-30T12:41:07.534Z,18.24
2019-03-30T12:43:39.093Z,18.47
2019-03-30T12:46:27.694Z,18.53
2019-03-30T12:48:57.045Z,18.47
2019-03-30T12:51:26.367Z,18.55
2019-03-30T12:53:55.698Z,18.46
2019-03-30T12:56:25.043Z,18.55
2019-03-30T12:58:54.376Z,18.53
2019-03-30T13:01:23.708Z,18.41
2019-03-30T13:03:53.053Z,18.31
2019-03-30T13:06:22.387Z,18.49
2019-03-30T13:08:51.735Z,18.40
2019-03-30T13:11:21.079Z,18.31
2019-03-30T13:13:50.411Z,18.24
2019-03-30T13:16:19.812Z,18.28
2019-03-30T13:18:49.155Z,18.46
2019-03-30T13:21:18.487Z,18.69
2019-03-30T13:23:47.820Z,18.81
2019-03-30T13:26:17.166Z,18.68
2019-03-30T13:28:46.496Z,18.68
2019-03-30T13:31:15.830Z,18.40
2019-03-30T13:33:45.171Z,18.38
2019-03-30T13:39:22.334Z,18.37
2019-03-30T13:41:51.662Z,18.52
2019-03-30T13:44:21.328Z,18.61
2019-03-30T13:46:50.927Z,18.72
2019-03-30T13:49:20.535Z,18.70
2019-03-30T13:51:49.877Z,18.66
2019-03-30T13:54:19.547Z,18.61
2019-03-30T13:56:48.891Z,18.70
2019-03-30T13:59:18.223Z,18.67
2019-03-30T14:01:47.555Z,18.85
2019-03-30T14:04:16.900Z,18.97
2019-03-30T14:06:46.225Z,18.86
2019-03-30T14:09:22.135Z,18.87
2019-03-30T14:11:58.111Z,19.02
2019-03-30T14:14:27.444Z,18.99
2019-03-30T14:16:56.776Z,19.09
2019-03-30T14:19:26.131Z,18.90
2019-03-30T14:21:55.456Z,18.87
2019-03-30T14:24:24.787Z,18.81
2019-03-30T14:26:54.127Z,18.92
2019-03-30T14:29:23.455Z,18.74
2019-03-30T14:31:52.788Z,19.00
2019-03-30T14:34:22.131Z,18.71
2019-03-30T14:36:51.461Z,19.00
2019-03-30T14:39:20.790Z,18.78
2019-03-30T14:41:50.140Z,18.92
2019-03-30T14:44:19.462Z,19.04
2019-03-30T14:46:48.795Z,19.22
2019-03-30T14:49:18.145Z,18.94
2019-03-30T14:51:47.474Z,18.89
2019-03-30T14:54:16.805Z,19.00
2019-03-30T14:56:46.453Z,18.85
2019-03-30T14:59:22.308Z,19.02
2019-03-30T15:01:51.724Z,18.98
2019-03-30T15:04:21.055Z,18.96
2019-03-30T15:06:50.398Z,18.95
2019-03-30T15:09:25.553Z,18.90
2019-03-30T15:12:07.163Z,19.10
2019-03-30T15:14:36.505Z,19.10
2019-03-30T15:17:05.831Z,18.92
2019-03-30T15:19:35.173Z,19.05
2019-03-30T15:22:04.511Z,19.05
2019-03-30T15:24:33.842Z,18.84
2019-03-30T15:27:03.492Z,18.98
2019-03-30T15:29:32.838Z,18.90
2019-03-30T15:32:02.170Z,18.97
2019-03-30T15:34:31.706Z,18.94
2019-03-30T15:37:01.008Z,18.98
2019-03-30T15:39:30.336Z,19.04
2019-03-30T15:42:01.448Z,19.25
2019-03-30T15:44:30.715Z,19.06
2019-03-30T15:47:00.214Z,19.14
2019-03-30T15:49:29.854Z,19.26
2019-03-30T15:52:13.045Z,19.39
2019-03-30T15:57:50.667Z,19.19
2019-03-30T16:00:19.999Z,19.28
2019-03-30T16:02:49.339Z,19.16
2019-03-30T16:05:18.833Z,18.99
2019-03-30T16:07:48.172Z,18.96
2019-03-30T16:10:17.704Z,18.87
2019-03-30T16:12:47.057Z,18.76
2019-03-30T16:15:16.403Z,18.71
2019-03-30T16:17:45.743Z,18.57
2019-03-30T16:23:36.424Z,18.58
2019-03-30T16:26:05.762Z,18.58
2019-03-30T16:28:35.107Z,18.50
2019-03-30T16:31:04.526Z,18.55
2019-03-30T16:33:33.933Z,18.40
2019-03-30T16:36:03.277Z,18.24
2019-03-30T16:38:32.689Z,18.25
2019-03-30T16:41:14.589Z,18.35
2019-03-30T16:43:43.955Z,18.04
2019-03-30T16:46:13.291Z,17.96
2019-03-30T16:48:42.628Z,17.85
2019-03-30T16:51:11.976Z,17.88
2019-03-30T16:53:41.313Z,17.74
2019-03-30T16:56:10.636Z,17.60
2019-03-30T16:58:40.111Z,17.33
2019-03-30T17:01:28.781Z,17.11
2019-03-30T17:03:58.127Z,16.96
2019-03-30T17:06:27.531Z,16.76
2019-03-30T17:08:56.858Z,16.63
2019-03-30T17:11:26.578Z,16.64
2019-03-30T17:13:55.902Z,16.94
2019-03-30T17:16:25.236Z,16.73
2019-03-30T17:18:54.580Z,16.74
2019-03-30T17:21:23.906Z,16.54
2019-03-30T17:23:53.494Z,16.23
2019-03-30T17:26:22.884Z,16.07
2019-03-30T17:28:52.451Z,15.95
2019-03-30T17:31:21.776Z,15.77
2019-03-30T17:33:51.120Z,15.83
2019-03-30T17:36:20.450Z,15.59
2019-03-30T17:38:49.779Z,15.65
2019-03-30T17:41:19.191Z,15.67
2019-03-30T17:43:48.688Z,15.66
2019-03-30T17:46:18.137Z,15.74
2019-03-30T17:48:47.746Z,15.66
2019-03-30T17:51:17.084Z,15.92
2019-03-30T17:53:46.475Z,15.76
2019-03-30T17:56:27.753Z,15.69
2019-03-30T17:58:57.088Z,15.69
2019-03-30T18:01:26.738Z,15.58
2019-03-30T18:03:56.361Z,15.45
2019-03-30T18:06:25.687Z,15.43
2019-03-30T18:08:55.031Z,15.42
2019-03-30T18:11:24.372Z,15.42
2019-03-30T18:13:54.065Z,15.46
2019-03-30T18:16:23.403Z,15.32
2019-03-30T18:18:52.733Z,15.16
2019-03-30T18:21:41.407Z,15.08
2019-03-30T18:24:10.738Z,15.23
2019-03-30T18:26:40.074Z,15.04
2019-03-30T18:29:09.418Z,15.07
2019-03-30T18:32:24.566Z,14.94
2019-03-30T18:34:53.972Z,15.07
2019-03-30T18:37:34.357Z,15.03
2019-03-30T18:43:35.090Z,14.83
2019-03-30T18:46:23.758Z,14.62
2019-03-30T18:48:53.103Z,14.62
2019-03-30T18:51:42.243Z,14.77
2019-03-30T18:57:32.522Z,14.41
2019-03-30T19:00:01.860Z,14.41
2019-03-30T19:02:43.255Z,13.99
2019-03-30T19:05:12.595Z,13.99
2019-03-30T19:07:41.938Z,13.76
2019-03-30T19:10:23.761Z,13.45
2019-03-30T19:12:53.068Z,13.45
2019-03-30T19:15:22.424Z,13.66
2019-03-30T19:18:03.695Z,13.35
2019-03-30T19:20:33.039Z,13.17
2019-03-30T19:23:02.371Z,13.17
2019-03-30T19:25:43.483Z,13.04
2019-03-30T19:28:12.816Z,13.04
2019-03-30T19:31:01.496Z,12.79
2019-03-30T19:33:43.379Z,12.73
2019-03-30T19:36:12.727Z,12.73
2019-03-30T19:39:01.398Z,12.62
2019-03-30T19:41:30.749Z,12.73
2019-03-30T19:44:00.078Z,12.85
2019-03-30T19:46:29.406Z,12.88
2019-03-30T19:49:18.090Z,12.63
2019-03-30T19:51:47.418Z,12.63
2019-03-30T19:54:16.757Z,12.52
2019-03-30T19:56:46.168Z,12.44
2019-03-30T19:59:15.499Z,12.30
2019-03-30T20:01:44.899Z,12.33
2019-03-30T20:04:14.230Z,12.34
2019-03-30T20:06:43.575Z,12.24
2019-03-30T20:09:24.799Z,11.99
2019-03-30T20:11:54.137Z,11.99
2019-03-30T20:14:23.469Z,11.93
2019-03-30T20:17:05.508Z,11.78
2019-03-30T20:19:34.838Z,11.78
2019-03-30T20:22:04.255Z,11.80
2019-03-30T20:27:28.759Z,11.66
2019-03-30T20:29:58.102Z,11.61
2019-03-30T20:32:27.432Z,11.52
2019-03-30T20:35:15.897Z,11.67
2019-03-30T20:37:45.240Z,11.73
2019-03-30T20:40:14.644Z,11.64
2019-03-30T20:42:56.652Z,11.38
2019-03-30T20:48:26.968Z,11.26
2019-03-30T20:50:56.310Z,11.14
2019-03-30T20:53:25.657Z,11.09
2019-03-30T20:55:54.992Z,11.08
2019-03-30T20:58:24.335Z,11.10
2019-03-30T21:00:53.675Z,11.05
2019-03-30T21:03:23.006Z,10.99
2019-03-30T21:05:52.374Z,11.00
2019-03-30T21:08:40.801Z,11.04
2019-03-30T21:11:10.139Z,11.14
2019-03-30T21:13:39.493Z,11.13
2019-03-30T21:16:08.828Z,11.17
2019-03-30T21:18:43.353Z,11.07
2019-03-30T21:21:12.686Z,10.96
2019-03-30T21:23:42.023Z,10.87
2019-03-30T21:26:11.359Z,10.80
2019-03-30T21:28:59.799Z,10.76
2019-03-30T21:31:29.123Z,10.72
2019-03-30T21:33:58.455Z,10.67
2019-03-30T21:36:27.795Z,10.65
2019-03-30T21:38:57.125Z,10.60
2019-03-30T21:41:26.472Z,10.52
2019-03-30T21:43:55.873Z,10.51
2019-03-30T21:46:25.203Z,10.48
2019-03-30T21:48:54.542Z,10.54
2019-03-30T21:51:23.874Z,10.48
2019-03-30T21:54:12.308Z,10.39
2019-03-30T21:56:41.645Z,10.36
2019-03-30T21:59:10.975Z,10.29
2019-03-30T22:01:40.575Z,10.29
2019-03-30T22:04:09.905Z,10.22
2019-03-30T22:06:39.236Z,10.27
2019-03-30T22:09:20.101Z,10.28
2019-03-30T22:11:49.429Z,10.15
2019-03-30T22:14:18.794Z,10.15
2019-03-30T22:16:48.131Z,10.08
2019-03-30T22:19:22.727Z,10.01
2019-03-30T22:21:52.043Z,9.95
2019-03-30T22:24:21.687Z,9.93
2019-03-30T22:26:51.029Z,9.88
2019-03-30T22:29:20.352Z,9.81
2019-03-30T22:32:08.786Z,9.84
2019-03-30T22:34:38.120Z,9.79
2019-03-30T22:37:07.442Z,9.75
2019-03-30T22:39:36.777Z,9.74
2019-03-30T22:42:06.106Z,9.71
2019-03-30T22:44:35.514Z,9.77
2019-03-30T22:47:04.913Z,9.73
2019-03-30T22:49:34.239Z,9.69
2019-03-30T22:52:03.576Z,9.68
2019-03-30T22:54:32.899Z,9.66
2019-03-30T22:57:02.235Z,9.67
2019-03-30T22:59:31.558Z,9.70
2019-03-30T23:02:00.890Z,9.69
2019-03-30T23:04:49.865Z,9.63
2019-03-30T23:07:19.182Z,9.65
2019-03-30T23:09:48.517Z,9.63
2019-03-30T23:12:17.845Z,9.73
2019-03-30T23:15:06.694Z,9.60
2019-03-30T23:17:36.043Z,9.52
2019-03-30T23:23:07.279Z,9.37
2019-03-30T23:25:48.793Z,9.32
2019-03-30T23:28:18.133Z,9.30
2019-03-30T23:30:54.137Z,9.32
2019-03-30T23:33:24.272Z,9.35
2019-03-30T23:35:54.013Z,9.27
2019-03-30T23:38:23.308Z,9.24
2019-03-30T23:40:52.637Z,9.25
2019-03-30T23:43:21.967Z,9.17
2019-03-30T23:45:51.301Z,9.10
2019-03-30T23:48:27.881Z,9.04
2019-03-30T23:50:57.215Z,9.01
2019-03-30T23:53:26.534Z,8.96
2019-03-30T23:55:55.859Z,8.89
2019-03-30T23:58:25.198Z,8.81
